createdAt,value
2023-05-21T00:01:26.748Z,75.85
2023-05-21T00:03:55.404Z,75.75
2023-05-21T00:06:23.640Z,75.71
2023-05-21T00:08:52.066Z,75.70
2023-05-21T00:11:22.386Z,75.70
2023-05-21T00:13:50.694Z,75.95
2023-05-21T00:16:18.937Z,76.02
2023-05-21T00:18:47.432Z,76.27
2023-05-21T00:21:17.192Z,76.50
2023-05-21T00:23:48.127Z,76.65
2023-05-21T00:26:16.362Z,77.08
2023-05-21T00:28:46.431Z,77.48
2023-05-21T00:31:14.535Z,77.16
2023-05-21T00:33:42.890Z,77.31
2023-05-21T00:36:14.216Z,77.30
2023-05-21T00:38:43.898Z,77.29
2023-05-21T00:41:12.458Z,77.12
2023-05-21T00:43:40.694Z,76.96
2023-05-21T00:46:12.353Z,76.97
2023-05-21T00:48:43.688Z,76.83
2023-05-21T00:51:12.022Z,77.06
2023-05-21T00:53:40.233Z,77.02
2023-05-21T00:56:08.884Z,77.20
2023-05-21T00:58:37.163Z,77.04
2023-05-21T01:01:07.071Z,77.37
2023-05-21T01:03:39.170Z,77.27
2023-05-21T01:06:09.422Z,77.32
2023-05-21T01:08:38.600Z,77.18
2023-05-21T01:11:07.832Z,77.59
2023-05-21T01:13:40.327Z,77.67
2023-05-21T01:16:09.280Z,78.01
2023-05-21T01:18:43.558Z,78.22
2023-05-21T01:21:13.828Z,78.18
2023-05-21T01:23:43.290Z,78.11
2023-05-21T01:26:12.994Z,77.72
2023-05-21T01:28:43.167Z,77.85
2023-05-21T01:31:24.240Z,77.69
2023-05-21T01:33:53.267Z,77.36
2023-05-21T01:36:24.163Z,77.38
2023-05-21T01:38:58.840Z,76.99
2023-05-21T01:41:28.871Z,76.77
2023-05-21T01:43:57.510Z,77.33
2023-05-21T01:46:28.698Z,77.32
2023-05-21T01:48:57.515Z,77.24
2023-05-21T01:51:26.675Z,77.41
2023-05-21T01:53:56.129Z,77.55
2023-05-21T01:56:25.913Z,77.49
2023-05-21T01:58:54.024Z,77.95
2023-05-21T02:01:22.370Z,77.91
2023-05-21T02:03:50.907Z,78.09
2023-05-21T02:06:19.468Z,78.33
2023-05-21T02:08:48.328Z,78.64
2023-05-21T02:11:18.175Z,78.61
2023-05-21T02:13:46.301Z,78.50
2023-05-21T02:16:15.883Z,78.72
2023-05-21T02:18:44.370Z,78.75
2023-05-21T02:21:12.969Z,78.69
2023-05-21T02:23:42.049Z,78.75
2023-05-21T02:26:10.448Z,79.07
2023-05-21T02:28:40.407Z,79.22
2023-05-21T02:31:08.731Z,79.37
2023-05-21T02:33:36.872Z,79.72
2023-05-21T02:36:06.020Z,80.11
2023-05-21T02:38:34.085Z,80.05
2023-05-21T02:41:02.474Z,79.84
2023-05-21T02:43:31.785Z,80.07
2023-05-21T02:46:01.541Z,80.30
2023-05-21T02:48:30.510Z,80.03
2023-05-21T02:50:59.764Z,80.23
2023-05-21T02:53:27.822Z,79.99
2023-05-21T02:55:56.414Z,80.45
2023-05-21T02:58:25.386Z,80.47
2023-05-21T03:00:54.156Z,80.25
2023-05-21T03:03:23.835Z,80.42
2023-05-21T03:05:52.985Z,79.83
2023-05-21T03:08:21.376Z,79.97
2023-05-21T03:10:49.897Z,80.46
2023-05-21T03:13:18.568Z,79.91
2023-05-21T03:15:47.309Z,79.89
2023-05-21T03:18:15.465Z,80.52
2023-05-21T03:20:45.430Z,80.30
2023-05-21T03:23:16.452Z,80.20
2023-05-21T03:25:46.502Z,79.95
2023-05-21T03:28:15.904Z,79.80
2023-05-21T03:30:49.506Z,79.71
2023-05-21T03:33:36.077Z,79.48
2023-05-21T03:36:17.374Z,79.61
2023-05-21T03:38:45.591Z,79.66
2023-05-21T03:41:14.140Z,79.71
2023-05-21T03:43:44.983Z,79.68
2023-05-21T03:46:13.470Z,79.85
2023-05-21T03:49:02.430Z,80.14
2023-05-21T03:51:34.035Z,80.37
2023-05-21T03:54:02.326Z,80.53
2023-05-21T03:56:30.834Z,80.76
2023-05-21T03:58:59.043Z,80.88
2023-05-21T04:01:28.205Z,80.71
2023-05-21T04:03:56.741Z,80.32
2023-05-21T04:06:26.767Z,80.59
2023-05-21T04:08:57.218Z,80.54
2023-05-21T04:11:26.121Z,80.16
2023-05-21T04:13:54.247Z,80.39
2023-05-21T04:16:22.688Z,80.06
2023-05-21T04:18:51.264Z,80.29
2023-05-21T04:21:19.792Z,80.67
2023-05-21T04:23:47.961Z,80.27
2023-05-21T04:26:27.956Z,80.25
2023-05-21T04:28:56.076Z,80.33
2023-05-21T04:31:24.588Z,79.66
2023-05-21T04:33:52.840Z,79.38
2023-05-21T04:36:21.150Z,79.88
2023-05-21T04:38:49.800Z,79.95
2023-05-21T04:41:18.836Z,80.33
2023-05-21T04:43:48.395Z,79.42
2023-05-21T04:46:17.873Z,79.47
2023-05-21T04:48:46.806Z,79.82
2023-05-21T04:51:15.153Z,79.77
2023-05-21T04:53:43.599Z,79.82
2023-05-21T04:56:11.917Z,79.45
2023-05-21T04:58:40.499Z,79.50
2023-05-21T05:01:10.215Z,79.31
2023-05-21T05:03:38.367Z,79.90
2023-05-21T05:06:07.852Z,79.54
2023-05-21T05:08:36.309Z,79.90
2023-05-21T05:11:05.555Z,80.15
2023-05-21T05:13:35.378Z,80.21
2023-05-21T05:16:03.905Z,80.20
2023-05-21T05:18:34.022Z,80.03
2023-05-21T05:21:02.475Z,79.82
2023-05-21T05:23:30.575Z,80.18
2023-05-21T05:25:58.943Z,80.23
2023-05-21T05:28:27.064Z,80.13
2023-05-21T05:30:55.830Z,80.31
2023-05-21T05:33:26.125Z,80.25
2023-05-21T05:35:56.530Z,80.17
2023-05-21T05:38:24.747Z,79.84
2023-05-21T05:40:53.125Z,79.77
2023-05-21T05:43:22.426Z,79.91
2023-05-21T05:45:53.708Z,79.61
2023-05-21T05:48:21.844Z,79.63
2023-05-21T05:50:50.384Z,79.51
2023-05-21T05:53:19.914Z,79.34
2023-05-21T05:55:48.194Z,79.26
2023-05-21T05:58:16.940Z,78.84
2023-05-21T06:00:55.673Z,79.16
2023-05-21T06:03:23.958Z,79.20
2023-05-21T06:05:54.778Z,78.80
2023-05-21T06:08:24.587Z,78.68
2023-05-21T06:10:53.906Z,78.60
2023-05-21T06:13:22.036Z,79.29
2023-05-21T06:15:50.497Z,79.40
2023-05-21T06:18:18.615Z,78.83
2023-05-21T06:20:47.254Z,78.54
2023-05-21T06:23:15.639Z,78.54
2023-05-21T06:25:48.114Z,77.75
2023-05-21T06:28:17.747Z,76.98
2023-05-21T06:30:46.303Z,77.10
2023-05-21T06:33:14.422Z,76.82
2023-05-21T06:35:43.708Z,76.43
2023-05-21T06:38:12.803Z,76.00
2023-05-21T06:40:41.168Z,75.76
2023-05-21T06:43:14.821Z,74.88
2023-05-21T06:46:01.957Z,74.31
2023-05-21T06:48:39.728Z,73.83
2023-05-21T06:51:08.063Z,74.00
2023-05-21T06:53:36.534Z,73.72
2023-05-21T06:56:05.317Z,73.24
2023-05-21T06:58:43.982Z,72.83
2023-05-21T07:01:12.636Z,72.37
2023-05-21T07:03:41.029Z,72.53
2023-05-21T07:06:10.145Z,72.66
2023-05-21T07:08:38.376Z,72.15
2023-05-21T07:11:06.927Z,72.46
2023-05-21T07:13:36.122Z,71.69
2023-05-21T07:16:06.678Z,71.28
2023-05-21T07:18:35.088Z,71.44
2023-05-21T07:21:03.646Z,71.17
2023-05-21T07:23:31.660Z,71.04
2023-05-21T07:26:00.013Z,69.88
2023-05-21T07:28:28.170Z,69.65
2023-05-21T07:30:56.582Z,69.35
2023-05-21T07:33:33.239Z,68.83
2023-05-21T07:36:01.712Z,68.20
2023-05-21T07:38:30.424Z,67.97
2023-05-21T07:40:59.258Z,67.95
2023-05-21T07:43:27.607Z,67.82
2023-05-21T07:45:55.988Z,67.38
2023-05-21T07:48:24.166Z,67.33
2023-05-21T07:50:59.168Z,67.21
2023-05-21T07:53:28.775Z,66.91
2023-05-21T07:55:58.208Z,66.88
2023-05-21T07:58:29.120Z,66.68
2023-05-21T08:00:58.512Z,66.64
2023-05-21T08:03:27.849Z,66.58
2023-05-21T08:05:56.658Z,65.75
2023-05-21T08:08:26.487Z,65.27
2023-05-21T08:10:57.216Z,65.16
2023-05-21T08:13:27.473Z,65.01
2023-05-21T08:15:56.341Z,64.89
2023-05-21T08:18:25.390Z,65.15
2023-05-21T08:20:56.689Z,64.47
2023-05-21T08:23:28.147Z,64.05
2023-05-21T08:25:58.468Z,63.71
2023-05-21T08:28:27.544Z,63.46
2023-05-21T08:30:56.282Z,63.43
2023-05-21T08:33:25.754Z,63.42
2023-05-21T08:35:54.290Z,62.91
2023-05-21T08:38:31.822Z,62.96
2023-05-21T08:41:23.186Z,63.45
2023-05-21T08:43:56.586Z,63.37
2023-05-21T08:46:25.813Z,63.33
2023-05-21T08:48:55.019Z,62.75
2023-05-21T08:51:23.892Z,62.43
2023-05-21T08:53:56.992Z,62.15
2023-05-21T08:56:25.918Z,62.24
2023-05-21T08:58:56.470Z,61.88
2023-05-21T09:01:28.693Z,61.97
2023-05-21T09:04:16.277Z,62.49
2023-05-21T09:06:51.168Z,61.83
2023-05-21T09:09:30.024Z,60.91
2023-05-21T09:11:58.343Z,60.57
2023-05-21T09:14:27.635Z,60.61
2023-05-21T09:17:07.665Z,59.88
2023-05-21T09:19:36.242Z,59.29
2023-05-21T09:22:05.297Z,58.63
2023-05-21T09:24:36.735Z,58.84
2023-05-21T09:27:07.906Z,59.71
2023-05-21T09:29:36.221Z,59.94
2023-05-21T09:32:07.971Z,59.36
2023-05-21T09:34:39.190Z,59.09
2023-05-21T09:37:13.599Z,58.26
2023-05-21T09:39:49.726Z,57.21
2023-05-21T09:42:21.819Z,58.49
2023-05-21T09:44:50.148Z,58.57
2023-05-21T09:47:22.419Z,58.40
2023-05-21T09:49:50.963Z,58.32
2023-05-21T09:52:25.146Z,56.47
2023-05-21T09:54:54.963Z,56.04
2023-05-21T09:57:26.828Z,56.71
2023-05-21T09:59:55.081Z,56.45
2023-05-21T10:02:24.425Z,56.27
2023-05-21T10:04:54.274Z,55.14
2023-05-21T10:07:25.930Z,56.18
2023-05-21T10:09:57.257Z,56.77
2023-05-21T10:12:26.005Z,56.88
2023-05-21T10:14:59.264Z,55.12
2023-05-21T10:17:28.601Z,55.40
2023-05-21T10:19:57.615Z,55.28
2023-05-21T10:22:26.605Z,55.71
2023-05-21T10:24:56.186Z,56.50
2023-05-21T10:27:24.498Z,56.23
2023-05-21T10:29:55.048Z,55.72
2023-05-21T10:32:23.975Z,55.16
2023-05-21T10:34:54.038Z,54.89
2023-05-21T10:37:25.179Z,55.06
2023-05-21T10:39:53.681Z,55.01
2023-05-21T10:42:37.973Z,54.53
2023-05-21T10:45:10.598Z,54.45
2023-05-21T10:48:03.500Z,53.56
2023-05-21T10:50:47.864Z,53.28
2023-05-21T10:53:23.207Z,53.28
2023-05-21T10:56:00.378Z,52.32
2023-05-21T10:59:06.008Z,52.72
2023-05-21T11:01:36.759Z,50.72
2023-05-21T11:04:06.024Z,51.76
2023-05-21T11:06:34.397Z,50.21
2023-05-21T11:09:04.047Z,49.95
2023-05-21T11:11:46.262Z,49.92
2023-05-21T11:14:32.799Z,49.10
2023-05-21T11:17:01.875Z,48.87
2023-05-21T11:19:38.561Z,49.30
2023-05-21T11:22:09.202Z,48.79
2023-05-21T11:24:41.912Z,48.92
2023-05-21T11:27:10.183Z,49.51
2023-05-21T11:29:41.874Z,49.52
2023-05-21T11:32:10.666Z,48.85
2023-05-21T11:34:40.807Z,47.72
2023-05-21T11:37:27.591Z,47.13
2023-05-21T11:39:56.316Z,47.54
2023-05-21T11:42:32.615Z,47.64
2023-05-21T11:45:04.071Z,47.00
2023-05-21T11:47:33.824Z,46.38
2023-05-21T11:50:03.548Z,46.69
2023-05-21T11:52:33.132Z,46.28
2023-05-21T11:55:01.590Z,45.81
2023-05-21T11:57:31.765Z,46.39
2023-05-21T12:00:04.026Z,45.92
2023-05-21T12:02:46.259Z,45.11
2023-05-21T12:05:15.076Z,45.91
2023-05-21T12:07:43.396Z,45.03
2023-05-21T12:10:12.975Z,44.86
2023-05-21T12:12:53.801Z,44.90
2023-05-21T12:15:25.786Z,44.22
2023-05-21T12:17:54.148Z,43.83
2023-05-21T12:20:23.201Z,42.69
2023-05-21T12:22:51.324Z,41.90
2023-05-21T12:25:20.975Z,38.37
2023-05-21T12:27:50.202Z,37.85
2023-05-21T12:30:18.596Z,36.71
2023-05-21T12:32:48.152Z,36.68
2023-05-21T12:35:23.967Z,36.70
2023-05-21T12:37:53.136Z,36.13
2023-05-21T12:40:22.265Z,36.42
2023-05-21T12:42:50.787Z,37.27
2023-05-21T12:45:21.107Z,36.68
2023-05-21T12:47:56.067Z,35.86
2023-05-21T12:50:25.563Z,34.80
2023-05-21T12:52:56.922Z,34.75
2023-05-21T12:55:26.474Z,35.96
2023-05-21T12:58:05.394Z,36.05
2023-05-21T13:00:34.499Z,34.21
2023-05-21T13:03:06.357Z,34.29
2023-05-21T13:05:35.458Z,35.27
2023-05-21T13:08:03.866Z,34.83
2023-05-21T13:10:32.204Z,34.47
2023-05-21T13:13:00.380Z,33.86
2023-05-21T13:15:28.756Z,34.09
2023-05-21T13:18:01.840Z,33.16
2023-05-21T13:20:31.620Z,32.47
2023-05-21T13:22:59.924Z,31.36
2023-05-21T13:25:29.514Z,31.09
2023-05-21T13:27:58.030Z,30.50
2023-05-21T13:30:26.739Z,29.99
2023-05-21T13:32:55.221Z,30.87
2023-05-21T13:35:26.123Z,30.55
2023-05-21T13:37:55.589Z,31.58
2023-05-21T13:40:24.294Z,30.88
2023-05-21T13:42:52.350Z,30.55
2023-05-21T13:45:21.768Z,30.11
2023-05-21T13:47:50.210Z,28.94
2023-05-21T13:50:18.637Z,29.14
2023-05-21T13:52:47.037Z,28.91
2023-05-21T13:55:16.801Z,28.08
2023-05-21T13:57:45.887Z,28.55
2023-05-21T14:00:15.911Z,28.18
2023-05-21T14:02:45.178Z,27.63
2023-05-21T14:05:14.293Z,27.81
2023-05-21T14:07:42.745Z,27.12
2023-05-21T14:10:11.979Z,27.94
2023-05-21T14:12:41.918Z,28.11
2023-05-21T14:15:10.989Z,28.89
2023-05-21T14:17:40.398Z,28.20
2023-05-21T14:20:10.291Z,28.29
2023-05-21T14:22:38.735Z,28.30
2023-05-21T14:25:07.904Z,28.69
2023-05-21T14:27:37.609Z,29.03
2023-05-21T14:30:08.806Z,28.75
2023-05-21T14:32:36.983Z,29.41
2023-05-21T14:35:06.489Z,29.52
2023-05-21T14:37:34.696Z,28.42
2023-05-21T14:40:03.422Z,27.74
2023-05-21T14:42:32.140Z,28.18
2023-05-21T14:45:11.146Z,26.82
2023-05-21T14:47:48.742Z,27.53
2023-05-21T14:50:17.869Z,27.56
2023-05-21T14:52:46.323Z,26.82
2023-05-21T14:55:16.546Z,27.15
2023-05-21T14:57:44.866Z,27.65
2023-05-21T15:00:14.026Z,27.27
2023-05-21T15:02:42.675Z,27.58
2023-05-21T15:05:12.451Z,27.41
2023-05-21T15:07:40.662Z,26.62
2023-05-21T15:10:09.962Z,26.83
2023-05-21T15:12:38.073Z,26.43
2023-05-21T15:15:07.669Z,26.67
2023-05-21T15:17:35.852Z,25.77
2023-05-21T15:20:04.580Z,25.45
2023-05-21T15:22:35.367Z,25.10
2023-05-21T15:25:04.516Z,25.42
2023-05-21T15:27:32.655Z,24.70
2023-05-21T15:30:01.200Z,24.96
2023-05-21T15:32:29.405Z,25.43
2023-05-21T15:34:57.793Z,25.97
2023-05-21T15:37:26.166Z,25.99
2023-05-21T15:39:55.900Z,26.75
2023-05-21T15:42:24.008Z,26.72
2023-05-21T15:44:52.304Z,26.99
2023-05-21T15:47:20.980Z,26.35
2023-05-21T15:49:49.345Z,26.93
2023-05-21T15:52:17.623Z,27.04
2023-05-21T15:54:45.959Z,27.82
2023-05-21T15:57:15.470Z,28.59
2023-05-21T15:59:43.749Z,28.47
2023-05-21T16:02:11.782Z,27.39
2023-05-21T16:04:40.151Z,26.55
2023-05-21T16:07:08.196Z,25.12
2023-05-21T16:09:37.582Z,24.42
2023-05-21T16:12:06.230Z,24.00
2023-05-21T16:14:35.907Z,23.86
2023-05-21T16:17:04.042Z,24.13
2023-05-21T16:19:32.594Z,24.06
2023-05-21T16:22:01.484Z,24.24
2023-05-21T16:24:30.078Z,24.45
2023-05-21T16:26:58.362Z,24.23
2023-05-21T16:29:26.736Z,24.70
2023-05-21T16:31:57.515Z,24.29
2023-05-21T16:34:25.932Z,24.31
2023-05-21T16:36:54.039Z,25.81
2023-05-21T16:39:22.439Z,24.94
2023-05-21T16:41:50.609Z,24.50
2023-05-21T16:44:20.136Z,25.03
2023-05-21T16:46:48.226Z,24.71
2023-05-21T16:49:17.862Z,24.78
2023-05-21T16:51:46.197Z,25.04
2023-05-21T16:54:14.859Z,24.82
2023-05-21T16:56:42.970Z,24.91
2023-05-21T16:59:11.344Z,24.08
2023-05-21T17:01:39.478Z,22.98
2023-05-21T17:04:07.932Z,22.45
2023-05-21T17:06:37.374Z,22.34
2023-05-21T17:09:05.698Z,22.27
2023-05-21T17:11:34.888Z,22.35
2023-05-21T17:14:03.198Z,22.57
2023-05-21T17:16:31.362Z,22.97
2023-05-21T17:18:59.823Z,23.56
2023-05-21T17:21:28.117Z,23.80
2023-05-21T17:23:57.817Z,24.35
2023-05-21T17:26:26.438Z,24.50
2023-05-21T17:28:54.832Z,24.80
2023-05-21T17:31:23.068Z,24.54
2023-05-21T17:33:51.669Z,24.75
2023-05-21T17:36:19.830Z,25.02
2023-05-21T17:38:48.320Z,25.44
2023-05-21T17:41:18.862Z,25.49
2023-05-21T17:43:47.588Z,25.54
2023-05-21T17:46:17.907Z,25.88
2023-05-21T17:48:46.655Z,26.00
2023-05-21T17:51:14.751Z,26.47
2023-05-21T17:53:43.193Z,27.05
2023-05-21T17:56:11.439Z,27.62
2023-05-21T17:58:43.299Z,28.07
2023-05-21T18:01:11.566Z,28.72
2023-05-21T18:03:40.064Z,29.92
2023-05-21T18:06:09.493Z,30.44
2023-05-21T18:08:38.300Z,31.36
2023-05-21T18:11:06.435Z,32.20
2023-05-21T18:13:34.851Z,32.46
2023-05-21T18:16:04.490Z,33.04
2023-05-21T18:18:32.946Z,34.14
2023-05-21T18:21:01.347Z,34.55
2023-05-21T18:23:31.214Z,34.76
2023-05-21T18:25:59.444Z,35.03
2023-05-21T18:28:30.403Z,34.83
2023-05-21T18:31:00.836Z,35.34
2023-05-21T18:33:30.924Z,34.42
2023-05-21T18:35:59.361Z,35.67
2023-05-21T18:38:27.764Z,34.85
2023-05-21T18:40:55.831Z,35.96
2023-05-21T18:43:24.213Z,36.69
2023-05-21T18:45:52.355Z,37.06
2023-05-21T18:48:21.214Z,37.74
2023-05-21T18:50:50.624Z,38.46
2023-05-21T18:53:18.981Z,39.02
2023-05-21T18:55:47.332Z,38.59
2023-05-21T18:58:16.541Z,38.87
2023-05-21T19:00:44.654Z,39.11
2023-05-21T19:03:13.083Z,38.79
2023-05-21T19:05:41.205Z,38.89
2023-05-21T19:08:11.018Z,38.83
2023-05-21T19:10:39.652Z,40.22
2023-05-21T19:13:08.296Z,41.31
2023-05-21T19:15:36.454Z,41.16
2023-05-21T19:18:05.138Z,41.30
2023-05-21T19:20:33.403Z,40.70
2023-05-21T19:23:01.756Z,41.56
2023-05-21T19:25:32.127Z,41.94
2023-05-21T19:28:01.327Z,42.93
2023-05-21T19:30:29.372Z,44.02
2023-05-21T19:32:57.804Z,44.98
2023-05-21T19:35:26.084Z,45.42
2023-05-21T19:37:58.684Z,45.07
2023-05-21T19:40:27.184Z,46.04
2023-05-21T19:42:56.871Z,46.04
2023-05-21T19:45:25.397Z,46.26
2023-05-21T19:47:53.752Z,46.29
2023-05-21T19:50:22.192Z,46.47
2023-05-21T19:52:50.760Z,47.69
2023-05-21T19:55:20.006Z,47.89
2023-05-21T19:57:48.596Z,47.61
2023-05-21T20:00:18.732Z,47.93
2023-05-21T20:02:47.649Z,48.25
2023-05-21T20:05:16.178Z,48.57
2023-05-21T20:07:44.916Z,48.35
2023-05-21T20:10:13.052Z,48.28
2023-05-21T20:12:41.363Z,47.73
2023-05-21T20:15:13.144Z,47.56
2023-05-21T20:17:44.126Z,47.79
2023-05-21T20:20:13.005Z,48.09
2023-05-21T20:22:41.468Z,48.13
2023-05-21T20:25:10.532Z,47.92
2023-05-21T20:27:39.720Z,48.23
2023-05-21T20:30:09.232Z,48.16
2023-05-21T20:32:37.874Z,48.63
2023-05-21T20:35:09.808Z,49.19
2023-05-21T20:37:38.223Z,49.77
2023-05-21T20:40:09.213Z,48.86
2023-05-21T20:42:40.130Z,48.88
2023-05-21T20:45:09.172Z,49.69
2023-05-21T20:47:38.377Z,49.22
2023-05-21T20:50:08.511Z,50.10
2023-05-21T20:52:37.210Z,50.82
2023-05-21T20:55:05.965Z,51.14
2023-05-21T20:57:34.411Z,51.09
2023-05-21T21:00:02.507Z,50.85
2023-05-21T21:02:32.655Z,50.88
2023-05-21T21:05:02.498Z,51.64
2023-05-21T21:07:33.408Z,51.39
2023-05-21T21:10:01.624Z,50.94
2023-05-21T21:12:30.066Z,50.98
2023-05-21T21:14:58.128Z,51.59
2023-05-21T21:17:26.552Z,51.72
2023-05-21T21:19:54.725Z,51.95
2023-05-21T21:22:23.119Z,51.98
2023-05-21T21:24:52.521Z,52.00
2023-05-21T21:27:20.863Z,52.20
2023-05-21T21:29:49.023Z,52.21
2023-05-21T21:32:17.582Z,52.33
2023-05-21T21:34:45.839Z,52.80
2023-05-21T21:37:14.120Z,52.49
2023-05-21T21:39:42.249Z,52.85
2023-05-21T21:42:11.988Z,52.39
2023-05-21T21:44:40.198Z,52.28
2023-05-21T21:47:08.769Z,52.84
2023-05-21T21:49:36.855Z,52.30
2023-05-21T21:52:06.914Z,51.51
2023-05-21T21:54:34.995Z,52.90
2023-05-21T21:57:03.640Z,53.80
2023-05-21T21:59:33.072Z,52.17
2023-05-21T22:02:01.481Z,53.24
2023-05-21T22:04:29.722Z,53.36
2023-05-21T22:06:58.549Z,53.71
2023-05-21T22:09:26.708Z,54.44
2023-05-21T22:11:55.099Z,53.96
2023-05-21T22:14:23.329Z,53.74
2023-05-21T22:16:53.278Z,54.41
2023-05-21T22:19:22.071Z,57.06
2023-05-21T22:21:50.986Z,57.05
2023-05-21T22:24:31.563Z,57.52
2023-05-21T22:27:01.618Z,57.34
2023-05-21T22:29:29.687Z,57.28
2023-05-21T22:31:59.377Z,57.42
2023-05-21T22:34:27.510Z,57.73
2023-05-21T22:36:56.483Z,57.41
2023-05-21T22:39:24.505Z,57.20
2023-05-21T22:41:52.877Z,57.01
2023-05-21T22:44:21.181Z,57.42
2023-05-21T22:46:49.624Z,57.03
2023-05-21T22:49:19.862Z,56.79
2023-05-21T22:51:48.294Z,56.16
2023-05-21T22:54:16.446Z,56.20
2023-05-21T22:56:45.116Z,56.50
2023-05-21T22:59:14.990Z,57.07
2023-05-21T23:01:43.731Z,57.00
2023-05-21T23:04:12.188Z,56.58
2023-05-21T23:06:42.580Z,56.80
2023-05-21T23:09:10.756Z,57.52
2023-05-21T23:11:39.125Z,58.78
2023-05-21T23:14:07.275Z,59.05
2023-05-21T23:16:35.718Z,59.74
2023-05-21T23:19:04.075Z,60.22
2023-05-21T23:21:32.549Z,60.79
2023-05-21T23:24:02.023Z,61.37
2023-05-21T23:26:30.358Z,61.67
2023-05-21T23:28:58.542Z,61.15
2023-05-21T23:31:27.161Z,61.23
2023-05-21T23:33:56.563Z,61.37
2023-05-21T23:36:24.946Z,61.00
2023-05-21T23:38:53.042Z,61.42
2023-05-21T23:41:23.060Z,61.88
2023-05-21T23:43:51.329Z,61.06
2023-05-21T23:46:19.718Z,62.01
2023-05-21T23:48:47.750Z,62.65
2023-05-21T23:51:18.218Z,63.51
2023-05-21T23:53:46.445Z,65.23
2023-05-21T23:56:14.833Z,65.33
2023-05-21T23:58:44.199Z,66.69
